sensor_id;sensor_type;location;lat;lon;timestamp;temperature;humidity
13328;DHT22;6733;51.044;3.746;2024-02-21T00:02:19;10.70;79.10
13328;DHT22;6733;51.044;3.746;2024-02-21T00:04:45;10.60;79.20
13328;DHT22;6733;51.044;3.746;2024-02-21T00:07:11;10.60;79.20
13328;DHT22;6733;51.044;3.746;2024-02-21T00:09:39;10.60;79.20
13328;DHT22;6733;51.044;3.746;2024-02-21T00:12:05;10.60;79.30
13328;DHT22;6733;51.044;3.746;2024-02-21T00:14:31;10.70;79.60
13328;DHT22;6733;51.044;3.746;2024-02-21T00:16:58;10.70;79.80
13328;DHT22;6733;51.044;3.746;2024-02-21T00:19:25;10.70;79.80
13328;DHT22;6733;51.044;3.746;2024-02-21T00:21:51;10.80;79.70
13328;DHT22;6733;51.044;3.746;2024-02-21T00:24:17;10.80;79.70
13328;DHT22;6733;51.044;3.746;2024-02-21T00:26:43;10.90;79.70
13328;DHT22;6733;51.044;3.746;2024-02-21T00:29:09;10.90;79.60
13328;DHT22;6733;51.044;3.746;2024-02-21T00:31:35;10.90;79.40
13328;DHT22;6733;51.044;3.746;2024-02-21T00:34:02;10.90;79.60
13328;DHT22;6733;51.044;3.746;2024-02-21T00:36:28;10.90;80.10
13328;DHT22;6733;51.044;3.746;2024-02-21T00:38:54;10.90;80.40
13328;DHT22;6733;51.044;3.746;2024-02-21T00:41:20;10.90;80.70
13328;DHT22;6733;51.044;3.746;2024-02-21T00:43:46;10.90;80.90
13328;DHT22;6733;51.044;3.746;2024-02-21T00:46:14;10.90;80.90
13328;DHT22;6733;51.044;3.746;2024-02-21T00:48:40;10.80;81.10
13328;DHT22;6733;51.044;3.746;2024-02-21T00:51:07;10.80;81.30
13328;DHT22;6733;51.044;3.746;2024-02-21T00:53:33;10.80;81.60
13328;DHT22;6733;51.044;3.746;2024-02-21T00:55:59;10.70;81.70
13328;DHT22;6733;51.044;3.746;2024-02-21T00:58:25;10.70;81.90
13328;DHT22;6733;51.044;3.746;2024-02-21T01:00:51;10.70;82.10
13328;DHT22;6733;51.044;3.746;2024-02-21T01:03:17;10.70;82.20
13328;DHT22;6733;51.044;3.746;2024-02-21T01:05:44;10.70;82.30
13328;DHT22;6733;51.044;3.746;2024-02-21T01:08:10;10.60;82.50
13328;DHT22;6733;51.044;3.746;2024-02-21T01:10:36;10.60;82.70
13328;DHT22;6733;51.044;3.746;2024-02-21T01:13:03;10.60;82.70
13328;DHT22;6733;51.044;3.746;2024-02-21T01:15:29;10.60;82.70
13328;DHT22;6733;51.044;3.746;2024-02-21T01:17:55;10.60;82.90
13328;DHT22;6733;51.044;3.746;2024-02-21T01:20:21;10.50;83.20
13328;DHT22;6733;51.044;3.746;2024-02-21T01:22:48;10.50;83.30
13328;DHT22;6733;51.044;3.746;2024-02-21T01:25:14;10.50;83.30
13328;DHT22;6733;51.044;3.746;2024-02-21T01:27:40;10.50;83.30
13328;DHT22;6733;51.044;3.746;2024-02-21T01:30:07;10.40;83.30
13328;DHT22;6733;51.044;3.746;2024-02-21T01:32:33;10.40;83.30
13328;DHT22;6733;51.044;3.746;2024-02-21T01:35:00;10.50;83.10
13328;DHT22;6733;51.044;3.746;2024-02-21T01:37:26;10.40;83.10
13328;DHT22;6733;51.044;3.746;2024-02-21T01:39:52;10.40;82.90
13328;DHT22;6733;51.044;3.746;2024-02-21T01:42:19;10.40;82.90
13328;DHT22;6733;51.044;3.746;2024-02-21T01:44:45;10.40;82.80
13328;DHT22;6733;51.044;3.746;2024-02-21T01:47:12;10.50;82.80
13328;DHT22;6733;51.044;3.746;2024-02-21T01:49:43;10.40;82.70
13328;DHT22;6733;51.044;3.746;2024-02-21T01:52:09;10.50;82.50
13328;DHT22;6733;51.044;3.746;2024-02-21T01:54:36;10.50;82.30
13328;DHT22;6733;51.044;3.746;2024-02-21T01:57:03;10.50;82.30
13328;DHT22;6733;51.044;3.746;2024-02-21T01:59:29;10.50;82.20
13328;DHT22;6733;51.044;3.746;2024-02-21T02:01:56;10.50;82.10
13328;DHT22;6733;51.044;3.746;2024-02-21T02:04:23;10.50;82.30
13328;DHT22;6733;51.044;3.746;2024-02-21T02:06:51;10.50;82.10
13328;DHT22;6733;51.044;3.746;2024-02-21T02:09:17;10.40;82.20
13328;DHT22;6733;51.044;3.746;2024-02-21T02:11:44;10.40;82.40
13328;DHT22;6733;51.044;3.746;2024-02-21T02:14:10;10.40;82.30
13328;DHT22;6733;51.044;3.746;2024-02-21T02:16:36;10.50;82.20
13328;DHT22;6733;51.044;3.746;2024-02-21T02:19:02;10.50;82.00
13328;DHT22;6733;51.044;3.746;2024-02-21T02:21:30;10.60;81.80
13328;DHT22;6733;51.044;3.746;2024-02-21T02:23:59;10.60;81.60
13328;DHT22;6733;51.044;3.746;2024-02-21T02:26:25;10.60;81.50
13328;DHT22;6733;51.044;3.746;2024-02-21T02:28:51;10.70;81.30
13328;DHT22;6733;51.044;3.746;2024-02-21T02:31:18;10.70;81.10
13328;DHT22;6733;51.044;3.746;2024-02-21T02:33:44;10.70;81.00
13328;DHT22;6733;51.044;3.746;2024-02-21T02:36:35;10.70;80.90
13328;DHT22;6733;51.044;3.746;2024-02-21T02:39:27;10.70;80.90
13328;DHT22;6733;51.044;3.746;2024-02-21T02:42:17;10.70;80.70
13328;DHT22;6733;51.044;3.746;2024-02-21T02:45:09;10.60;80.80
13328;DHT22;6733;51.044;3.746;2024-02-21T02:48:00;10.60;80.90
13328;DHT22;6733;51.044;3.746;2024-02-21T02:50:51;10.60;80.90
13328;DHT22;6733;51.044;3.746;2024-02-21T02:53:42;10.60;80.80
13328;DHT22;6733;51.044;3.746;2024-02-21T02:56:33;10.60;80.80
13328;DHT22;6733;51.044;3.746;2024-02-21T02:58:59;10.60;80.70
13328;DHT22;6733;51.044;3.746;2024-02-21T03:01:25;10.60;80.80
13328;DHT22;6733;51.044;3.746;2024-02-21T03:03:52;10.60;80.70
13328;DHT22;6733;51.044;3.746;2024-02-21T03:06:18;10.60;80.80
13328;DHT22;6733;51.044;3.746;2024-02-21T03:08:44;10.60;80.80
13328;DHT22;6733;51.044;3.746;2024-02-21T03:11:10;10.50;80.90
13328;DHT22;6733;51.044;3.746;2024-02-21T03:13:37;10.60;80.80
13328;DHT22;6733;51.044;3.746;2024-02-21T03:16:03;10.60;80.80
13328;DHT22;6733;51.044;3.746;2024-02-21T03:18:29;10.50;80.80
13328;DHT22;6733;51.044;3.746;2024-02-21T03:20:56;10.50;80.80
13328;DHT22;6733;51.044;3.746;2024-02-21T03:23:22;10.50;80.80
13328;DHT22;6733;51.044;3.746;2024-02-21T03:25:48;10.60;80.60
13328;DHT22;6733;51.044;3.746;2024-02-21T03:28:15;10.60;80.60
13328;DHT22;6733;51.044;3.746;2024-02-21T03:30:41;10.50;80.50
13328;DHT22;6733;51.044;3.746;2024-02-21T03:33:08;10.60;80.50
13328;DHT22;6733;51.044;3.746;2024-02-21T03:35:34;10.60;80.40
13328;DHT22;6733;51.044;3.746;2024-02-21T03:38:00;10.50;80.40
13328;DHT22;6733;51.044;3.746;2024-02-21T03:40:26;10.60;80.40
13328;DHT22;6733;51.044;3.746;2024-02-21T03:42:52;10.60;80.40
13328;DHT22;6733;51.044;3.746;2024-02-21T03:45:19;10.60;80.40
13328;DHT22;6733;51.044;3.746;2024-02-21T03:47:45;10.60;80.30
13328;DHT22;6733;51.044;3.746;2024-02-21T03:50:11;10.60;80.30
13328;DHT22;6733;51.044;3.746;2024-02-21T03:52:38;10.50;80.40
13328;DHT22;6733;51.044;3.746;2024-02-21T03:55:04;10.50;80.60
13328;DHT22;6733;51.044;3.746;2024-02-21T03:57:30;10.50;80.60
13328;DHT22;6733;51.044;3.746;2024-02-21T03:59:56;10.50;80.60
13328;DHT22;6733;51.044;3.746;2024-02-21T04:02:23;10.60;80.50
13328;DHT22;6733;51.044;3.746;2024-02-21T04:04:49;10.60;80.40
13328;DHT22;6733;51.044;3.746;2024-02-21T04:07:15;10.60;80.40
13328;DHT22;6733;51.044;3.746;2024-02-21T04:09:41;10.60;80.40
13328;DHT22;6733;51.044;3.746;2024-02-21T04:12:08;10.60;80.30
13328;DHT22;6733;51.044;3.746;2024-02-21T04:14:35;10.50;80.40
13328;DHT22;6733;51.044;3.746;2024-02-21T04:17:01;10.60;80.40
13328;DHT22;6733;51.044;3.746;2024-02-21T04:19:28;10.60;80.40
13328;DHT22;6733;51.044;3.746;2024-02-21T04:21:54;10.60;80.30
13328;DHT22;6733;51.044;3.746;2024-02-21T04:24:20;10.60;80.30
13328;DHT22;6733;51.044;3.746;2024-02-21T04:26:46;10.60;80.30
13328;DHT22;6733;51.044;3.746;2024-02-21T04:29:12;10.50;80.40
13328;DHT22;6733;51.044;3.746;2024-02-21T04:31:38;10.60;80.40
13328;DHT22;6733;51.044;3.746;2024-02-21T04:34:06;10.60;80.30
13328;DHT22;6733;51.044;3.746;2024-02-21T04:36:32;10.60;80.30
13328;DHT22;6733;51.044;3.746;2024-02-21T04:38:58;10.60;80.40
13328;DHT22;6733;51.044;3.746;2024-02-21T04:41:25;10.60;80.40
13328;DHT22;6733;51.044;3.746;2024-02-21T04:43:51;10.60;80.40
13328;DHT22;6733;51.044;3.746;2024-02-21T04:46:17;10.60;80.30
13328;DHT22;6733;51.044;3.746;2024-02-21T04:48:43;10.60;80.40
13328;DHT22;6733;51.044;3.746;2024-02-21T04:51:09;10.60;80.40
13328;DHT22;6733;51.044;3.746;2024-02-21T04:53:35;10.50;80.50
13328;DHT22;6733;51.044;3.746;2024-02-21T04:56:02;10.50;80.60
13328;DHT22;6733;51.044;3.746;2024-02-21T04:58:28;10.50;80.70
13328;DHT22;6733;51.044;3.746;2024-02-21T05:00:54;10.50;80.80
13328;DHT22;6733;51.044;3.746;2024-02-21T05:03:21;10.50;80.90
13328;DHT22;6733;51.044;3.746;2024-02-21T05:05:47;10.50;81.00
13328;DHT22;6733;51.044;3.746;2024-02-21T05:08:13;10.50;81.00
13328;DHT22;6733;51.044;3.746;2024-02-21T05:10:39;10.40;81.20
13328;DHT22;6733;51.044;3.746;2024-02-21T05:13:06;10.50;81.20
13328;DHT22;6733;51.044;3.746;2024-02-21T05:15:32;10.50;81.20
13328;DHT22;6733;51.044;3.746;2024-02-21T05:17:59;10.50;81.10
13328;DHT22;6733;51.044;3.746;2024-02-21T05:20:25;10.50;81.20
13328;DHT22;6733;51.044;3.746;2024-02-21T05:22:51;10.50;81.30
13328;DHT22;6733;51.044;3.746;2024-02-21T05:25:19;10.50;81.30
13328;DHT22;6733;51.044;3.746;2024-02-21T05:27:45;10.50;81.30
13328;DHT22;6733;51.044;3.746;2024-02-21T05:30:12;10.50;81.20
13328;DHT22;6733;51.044;3.746;2024-02-21T05:32:38;10.50;81.20
13328;DHT22;6733;51.044;3.746;2024-02-21T05:35:04;10.60;81.10
13328;DHT22;6733;51.044;3.746;2024-02-21T05:37:30;10.50;81.20
13328;DHT22;6733;51.044;3.746;2024-02-21T05:39:57;10.50;81.20
13328;DHT22;6733;51.044;3.746;2024-02-21T05:42:23;10.40;81.30
13328;DHT22;6733;51.044;3.746;2024-02-21T05:44:49;10.50;81.40
13328;DHT22;6733;51.044;3.746;2024-02-21T05:47:15;10.50;81.60
13328;DHT22;6733;51.044;3.746;2024-02-21T05:49:41;10.40;81.60
13328;DHT22;6733;51.044;3.746;2024-02-21T05:52:07;10.50;81.50
13328;DHT22;6733;51.044;3.746;2024-02-21T05:54:33;10.50;81.50
13328;DHT22;6733;51.044;3.746;2024-02-21T05:57:00;10.50;81.40
13328;DHT22;6733;51.044;3.746;2024-02-21T05:59:26;10.50;81.40
13328;DHT22;6733;51.044;3.746;2024-02-21T06:02:01;10.50;81.40
13328;DHT22;6733;51.044;3.746;2024-02-21T06:04:29;10.50;81.40
13328;DHT22;6733;51.044;3.746;2024-02-21T06:06:55;10.50;81.40
13328;DHT22;6733;51.044;3.746;2024-02-21T06:09:22;10.50;81.40
13328;DHT22;6733;51.044;3.746;2024-02-21T06:11:48;10.50;81.60
13328;DHT22;6733;51.044;3.746;2024-02-21T06:14:15;10.50;81.60
13328;DHT22;6733;51.044;3.746;2024-02-21T06:16:41;10.50;81.60
13328;DHT22;6733;51.044;3.746;2024-02-21T06:19:07;10.50;81.40
13328;DHT22;6733;51.044;3.746;2024-02-21T06:21:33;10.50;81.30
13328;DHT22;6733;51.044;3.746;2024-02-21T06:23:59;10.60;81.30
13328;DHT22;6733;51.044;3.746;2024-02-21T06:26:25;10.60;81.20
13328;DHT22;6733;51.044;3.746;2024-02-21T06:28:52;10.60;81.10
13328;DHT22;6733;51.044;3.746;2024-02-21T06:31:18;10.50;81.20
13328;DHT22;6733;51.044;3.746;2024-02-21T06:33:44;10.60;81.10
13328;DHT22;6733;51.044;3.746;2024-02-21T06:36:10;10.50;81.20
13328;DHT22;6733;51.044;3.746;2024-02-21T06:38:36;10.50;81.20
13328;DHT22;6733;51.044;3.746;2024-02-21T06:41:03;10.50;81.50
13328;DHT22;6733;51.044;3.746;2024-02-21T06:43:30;10.50;81.40
13328;DHT22;6733;51.044;3.746;2024-02-21T06:45:56;10.50;81.20
13328;DHT22;6733;51.044;3.746;2024-02-21T06:48:22;10.60;81.20
13328;DHT22;6733;51.044;3.746;2024-02-21T06:50:48;10.60;81.00
13328;DHT22;6733;51.044;3.746;2024-02-21T06:53:15;10.60;81.00
13328;DHT22;6733;51.044;3.746;2024-02-21T06:55:41;10.60;80.90
13328;DHT22;6733;51.044;3.746;2024-02-21T06:58:07;10.60;80.80
13328;DHT22;6733;51.044;3.746;2024-02-21T07:00:38;10.60;80.80
13328;DHT22;6733;51.044;3.746;2024-02-21T07:03:04;10.60;80.70
13328;DHT22;6733;51.044;3.746;2024-02-21T07:05:31;10.60;80.80
13328;DHT22;6733;51.044;3.746;2024-02-21T07:07:57;10.60;80.60
13328;DHT22;6733;51.044;3.746;2024-02-21T07:10:23;10.60;80.60
13328;DHT22;6733;51.044;3.746;2024-02-21T07:12:49;10.50;80.50
13328;DHT22;6733;51.044;3.746;2024-02-21T07:15:18;10.50;80.50
13328;DHT22;6733;51.044;3.746;2024-02-21T07:17:44;10.50;80.50
13328;DHT22;6733;51.044;3.746;2024-02-21T07:20:10;10.50;80.50
13328;DHT22;6733;51.044;3.746;2024-02-21T07:22:36;10.50;80.40
13328;DHT22;6733;51.044;3.746;2024-02-21T07:25:03;10.50;80.50
13328;DHT22;6733;51.044;3.746;2024-02-21T07:27:29;10.50;80.40
13328;DHT22;6733;51.044;3.746;2024-02-21T07:29:57;10.50;80.40
13328;DHT22;6733;51.044;3.746;2024-02-21T07:32:24;10.50;80.50
13328;DHT22;6733;51.044;3.746;2024-02-21T07:34:50;10.50;80.60
13328;DHT22;6733;51.044;3.746;2024-02-21T07:37:16;10.50;80.50
13328;DHT22;6733;51.044;3.746;2024-02-21T07:39:42;10.50;80.50
13328;DHT22;6733;51.044;3.746;2024-02-21T07:42:08;10.50;80.40
13328;DHT22;6733;51.044;3.746;2024-02-21T07:44:34;10.50;80.70
13328;DHT22;6733;51.044;3.746;2024-02-21T07:47:01;10.50;80.70
13328;DHT22;6733;51.044;3.746;2024-02-21T07:49:27;10.50;80.70
13328;DHT22;6733;51.044;3.746;2024-02-21T07:51:53;10.50;80.70
13328;DHT22;6733;51.044;3.746;2024-02-21T07:54:20;10.50;80.80
13328;DHT22;6733;51.044;3.746;2024-02-21T07:56:46;10.50;80.80
13328;DHT22;6733;51.044;3.746;2024-02-21T07:59:13;10.50;80.90
13328;DHT22;6733;51.044;3.746;2024-02-21T08:01:40;10.50;81.00
13328;DHT22;6733;51.044;3.746;2024-02-21T08:04:06;10.60;81.00
13328;DHT22;6733;51.044;3.746;2024-02-21T08:06:32;10.60;80.90
13328;DHT22;6733;51.044;3.746;2024-02-21T08:08:58;10.60;80.90
13328;DHT22;6733;51.044;3.746;2024-02-21T08:11:26;10.60;80.90
13328;DHT22;6733;51.044;3.746;2024-02-21T08:13:52;10.70;80.80
13328;DHT22;6733;51.044;3.746;2024-02-21T08:16:18;10.70;80.60
13328;DHT22;6733;51.044;3.746;2024-02-21T08:18:44;10.80;80.60
13328;DHT22;6733;51.044;3.746;2024-02-21T08:21:10;10.90;80.50
13328;DHT22;6733;51.044;3.746;2024-02-21T08:23:36;10.80;80.20
13328;DHT22;6733;51.044;3.746;2024-02-21T08:26:05;10.80;80.10
13328;DHT22;6733;51.044;3.746;2024-02-21T08:28:31;10.80;80.10
13328;DHT22;6733;51.044;3.746;2024-02-21T08:30:57;10.80;80.10
13328;DHT22;6733;51.044;3.746;2024-02-21T08:33:24;10.80;80.10
13328;DHT22;6733;51.044;3.746;2024-02-21T08:35:51;10.80;80.00
13328;DHT22;6733;51.044;3.746;2024-02-21T08:38:17;10.80;79.80
13328;DHT22;6733;51.044;3.746;2024-02-21T08:40:44;10.80;79.90
13328;DHT22;6733;51.044;3.746;2024-02-21T08:43:10;10.80;79.70
13328;DHT22;6733;51.044;3.746;2024-02-21T08:45:37;10.90;79.50
13328;DHT22;6733;51.044;3.746;2024-02-21T08:48:04;11.00;79.10
13328;DHT22;6733;51.044;3.746;2024-02-21T08:50:30;11.00;78.90
13328;DHT22;6733;51.044;3.746;2024-02-21T08:52:56;10.90;78.70
13328;DHT22;6733;51.044;3.746;2024-02-21T08:55:22;10.90;78.60
13328;DHT22;6733;51.044;3.746;2024-02-21T08:57:50;10.80;78.60
13328;DHT22;6733;51.044;3.746;2024-02-21T09:00:16;10.90;78.60
13328;DHT22;6733;51.044;3.746;2024-02-21T09:02:42;10.90;78.30
13328;DHT22;6733;51.044;3.746;2024-02-21T09:05:09;10.90;77.90
13328;DHT22;6733;51.044;3.746;2024-02-21T09:07:35;11.00;77.80
13328;DHT22;6733;51.044;3.746;2024-02-21T09:10:01;11.00;77.70
13328;DHT22;6733;51.044;3.746;2024-02-21T09:12:28;11.00;77.70
13328;DHT22;6733;51.044;3.746;2024-02-21T09:14:55;11.00;77.60
13328;DHT22;6733;51.044;3.746;2024-02-21T09:17:21;11.10;77.40
13328;DHT22;6733;51.044;3.746;2024-02-21T09:19:47;11.10;77.10
13328;DHT22;6733;51.044;3.746;2024-02-21T09:22:14;11.10;76.80
13328;DHT22;6733;51.044;3.746;2024-02-21T09:24:40;11.20;76.40
13328;DHT22;6733;51.044;3.746;2024-02-21T09:27:06;11.20;76.50
13328;DHT22;6733;51.044;3.746;2024-02-21T09:29:32;11.30;76.20
13328;DHT22;6733;51.044;3.746;2024-02-21T09:32:01;11.30;75.90
13328;DHT22;6733;51.044;3.746;2024-02-21T09:34:29;11.40;75.80
13328;DHT22;6733;51.044;3.746;2024-02-21T09:36:55;11.50;75.50
13328;DHT22;6733;51.044;3.746;2024-02-21T09:39:21;11.40;75.40
13328;DHT22;6733;51.044;3.746;2024-02-21T09:41:55;11.50;75.10
13328;DHT22;6733;51.044;3.746;2024-02-21T09:44:24;11.50;75.20
13328;DHT22;6733;51.044;3.746;2024-02-21T09:47:03;11.40;75.20
13328;DHT22;6733;51.044;3.746;2024-02-21T09:49:32;11.40;75.60
13328;DHT22;6733;51.044;3.746;2024-02-21T09:52:03;11.50;75.40
13328;DHT22;6733;51.044;3.746;2024-02-21T09:54:30;11.60;75.10
13328;DHT22;6733;51.044;3.746;2024-02-21T09:57:03;11.60;74.60
13328;DHT22;6733;51.044;3.746;2024-02-21T09:59:32;11.70;74.70
13328;DHT22;6733;51.044;3.746;2024-02-21T10:01:59;11.70;74.50
13328;DHT22;6733;51.044;3.746;2024-02-21T10:04:26;11.80;74.40
13328;DHT22;6733;51.044;3.746;2024-02-21T10:06:53;11.80;74.30
13328;DHT22;6733;51.044;3.746;2024-02-21T10:09:23;11.90;74.20
13328;DHT22;6733;51.044;3.746;2024-02-21T10:11:50;11.80;74.00
13328;DHT22;6733;51.044;3.746;2024-02-21T10:14:17;11.80;74.00
13328;DHT22;6733;51.044;3.746;2024-02-21T10:16:47;11.60;74.30
13328;DHT22;6733;51.044;3.746;2024-02-21T10:19:20;11.60;74.50
13328;DHT22;6733;51.044;3.746;2024-02-21T10:22:05;11.60;74.60
13328;DHT22;6733;51.044;3.746;2024-02-21T10:24:34;11.60;74.90
13328;DHT22;6733;51.044;3.746;2024-02-21T10:27:08;11.70;74.60
13328;DHT22;6733;51.044;3.746;2024-02-21T10:29:37;11.70;74.30
13328;DHT22;6733;51.044;3.746;2024-02-21T10:32:11;11.80;74.30
13328;DHT22;6733;51.044;3.746;2024-02-21T10:34:40;11.70;74.20
13328;DHT22;6733;51.044;3.746;2024-02-21T10:37:10;11.80;74.30
13328;DHT22;6733;51.044;3.746;2024-02-21T10:39:41;11.70;74.20
13328;DHT22;6733;51.044;3.746;2024-02-21T10:42:10;11.70;74.40
13328;DHT22;6733;51.044;3.746;2024-02-21T10:44:38;11.60;74.70
13328;DHT22;6733;51.044;3.746;2024-02-21T10:47:09;11.60;74.70
13328;DHT22;6733;51.044;3.746;2024-02-21T10:49:40;11.60;74.70
13328;DHT22;6733;51.044;3.746;2024-02-21T10:52:22;11.60;74.70
13328;DHT22;6733;51.044;3.746;2024-02-21T10:54:53;11.60;74.70
13328;DHT22;6733;51.044;3.746;2024-02-21T10:57:23;11.60;74.60
13328;DHT22;6733;51.044;3.746;2024-02-21T10:59:50;11.60;74.70
13328;DHT22;6733;51.044;3.746;2024-02-21T11:02:16;11.50;74.80
13328;DHT22;6733;51.044;3.746;2024-02-21T11:04:43;11.40;75.30
13328;DHT22;6733;51.044;3.746;2024-02-21T11:07:09;11.50;75.30
13328;DHT22;6733;51.044;3.746;2024-02-21T11:09:35;11.40;75.30
13328;DHT22;6733;51.044;3.746;2024-02-21T11:12:03;11.30;75.30
13328;DHT22;6733;51.044;3.746;2024-02-21T11:14:30;11.30;75.50
13328;DHT22;6733;51.044;3.746;2024-02-21T11:17:01;11.10;75.70
13328;DHT22;6733;51.044;3.746;2024-02-21T11:19:29;11.10;76.10
13328;DHT22;6733;51.044;3.746;2024-02-21T11:21:57;11.10;76.10
13328;DHT22;6733;51.044;3.746;2024-02-21T11:24:31;11.10;76.10
13328;DHT22;6733;51.044;3.746;2024-02-21T11:27:21;11.10;76.40
13328;DHT22;6733;51.044;3.746;2024-02-21T11:29:55;11.20;76.20
13328;DHT22;6733;51.044;3.746;2024-02-21T11:32:22;11.30;75.90
13328;DHT22;6733;51.044;3.746;2024-02-21T11:35:04;11.40;75.60
13328;DHT22;6733;51.044;3.746;2024-02-21T11:37:32;11.40;75.20
13328;DHT22;6733;51.044;3.746;2024-02-21T11:40:05;11.30;75.30
13328;DHT22;6733;51.044;3.746;2024-02-21T11:42:35;11.40;75.20
13328;DHT22;6733;51.044;3.746;2024-02-21T11:45:01;11.30;75.10
13328;DHT22;6733;51.044;3.746;2024-02-21T11:47:31;11.40;75.20
13328;DHT22;6733;51.044;3.746;2024-02-21T11:49:57;11.40;75.10
13328;DHT22;6733;51.044;3.746;2024-02-21T11:52:24;11.50;75.10
13328;DHT22;6733;51.044;3.746;2024-02-21T11:54:51;11.50;74.70
13328;DHT22;6733;51.044;3.746;2024-02-21T11:57:22;11.60;74.30
13328;DHT22;6733;51.044;3.746;2024-02-21T11:59:49;11.60;73.90
13328;DHT22;6733;51.044;3.746;2024-02-21T12:02:18;11.50;73.90
13328;DHT22;6733;51.044;3.746;2024-02-21T12:04:44;11.40;74.10
13328;DHT22;6733;51.044;3.746;2024-02-21T12:07:10;11.40;74.20
13328;DHT22;6733;51.044;3.746;2024-02-21T12:09:36;11.40;74.20
13328;DHT22;6733;51.044;3.746;2024-02-21T12:12:04;11.30;74.40
13328;DHT22;6733;51.044;3.746;2024-02-21T12:14:32;11.40;74.40
13328;DHT22;6733;51.044;3.746;2024-02-21T12:16:59;11.30;74.50
13328;DHT22;6733;51.044;3.746;2024-02-21T12:19:26;11.40;74.40
13328;DHT22;6733;51.044;3.746;2024-02-21T12:21:54;11.40;74.20
13328;DHT22;6733;51.044;3.746;2024-02-21T12:24:21;11.30;74.40
13328;DHT22;6733;51.044;3.746;2024-02-21T12:26:48;11.30;74.70
13328;DHT22;6733;51.044;3.746;2024-02-21T12:29:14;11.50;74.20
13328;DHT22;6733;51.044;3.746;2024-02-21T12:31:40;11.50;74.20
13328;DHT22;6733;51.044;3.746;2024-02-21T12:34:06;11.70;73.80
13328;DHT22;6733;51.044;3.746;2024-02-21T12:36:40;11.70;73.40
13328;DHT22;6733;51.044;3.746;2024-02-21T12:39:10;11.70;73.30
13328;DHT22;6733;51.044;3.746;2024-02-21T12:41:37;11.80;73.30
13328;DHT22;6733;51.044;3.746;2024-02-21T12:44:10;11.80;73.10
13328;DHT22;6733;51.044;3.746;2024-02-21T12:46:37;11.80;73.40
13328;DHT22;6733;51.044;3.746;2024-02-21T12:49:04;11.80;73.10
13328;DHT22;6733;51.044;3.746;2024-02-21T12:51:34;11.90;73.30
13328;DHT22;6733;51.044;3.746;2024-02-21T12:54:00;12.00;73.10
13328;DHT22;6733;51.044;3.746;2024-02-21T12:56:29;12.00;72.80
13328;DHT22;6733;51.044;3.746;2024-02-21T12:58:58;11.90;73.10
13328;DHT22;6733;51.044;3.746;2024-02-21T13:01:24;11.90;73.20
13328;DHT22;6733;51.044;3.746;2024-02-21T13:03:50;11.80;73.20
13328;DHT22;6733;51.044;3.746;2024-02-21T13:06:16;11.90;73.40
13328;DHT22;6733;51.044;3.746;2024-02-21T13:08:42;11.90;73.40
13328;DHT22;6733;51.044;3.746;2024-02-21T13:11:10;11.70;74.00
13328;DHT22;6733;51.044;3.746;2024-02-21T13:13:36;11.70;74.40
13328;DHT22;6733;51.044;3.746;2024-02-21T13:16:03;11.70;75.20
13328;DHT22;6733;51.044;3.746;2024-02-21T13:18:29;11.60;75.40
13328;DHT22;6733;51.044;3.746;2024-02-21T13:20:56;11.60;76.00
13328;DHT22;6733;51.044;3.746;2024-02-21T13:23:22;11.60;76.40
13328;DHT22;6733;51.044;3.746;2024-02-21T13:25:48;11.70;76.20
13328;DHT22;6733;51.044;3.746;2024-02-21T13:28:18;11.60;76.80
13328;DHT22;6733;51.044;3.746;2024-02-21T13:30:44;11.60;77.20
13328;DHT22;6733;51.044;3.746;2024-02-21T13:33:10;11.60;77.50
13328;DHT22;6733;51.044;3.746;2024-02-21T13:35:36;11.50;77.60
13328;DHT22;6733;51.044;3.746;2024-02-21T13:38:03;11.50;78.30
13328;DHT22;6733;51.044;3.746;2024-02-21T13:40:30;11.50;78.30
13328;DHT22;6733;51.044;3.746;2024-02-21T13:42:56;11.60;78.70
13328;DHT22;6733;51.044;3.746;2024-02-21T13:45:23;11.70;79.00
13328;DHT22;6733;51.044;3.746;2024-02-21T13:47:49;11.70;78.60
13328;DHT22;6733;51.044;3.746;2024-02-21T13:50:16;11.80;78.90
13328;DHT22;6733;51.044;3.746;2024-02-21T13:52:43;11.80;78.60
13328;DHT22;6733;51.044;3.746;2024-02-21T13:55:09;11.80;78.50
13328;DHT22;6733;51.044;3.746;2024-02-21T13:57:38;11.80;78.60
13328;DHT22;6733;51.044;3.746;2024-02-21T14:00:05;11.70;79.00
13328;DHT22;6733;51.044;3.746;2024-02-21T14:02:31;11.70;79.10
13328;DHT22;6733;51.044;3.746;2024-02-21T14:04:57;11.70;79.50
13328;DHT22;6733;51.044;3.746;2024-02-21T14:07:24;11.70;79.50
13328;DHT22;6733;51.044;3.746;2024-02-21T14:09:50;11.60;79.50
13328;DHT22;6733;51.044;3.746;2024-02-21T14:12:16;11.60;79.90
13328;DHT22;6733;51.044;3.746;2024-02-21T14:14:43;11.50;79.90
13328;DHT22;6733;51.044;3.746;2024-02-21T14:17:10;11.60;80.00
13328;DHT22;6733;51.044;3.746;2024-02-21T14:19:36;11.50;79.90
13328;DHT22;6733;51.044;3.746;2024-02-21T14:22:02;11.50;80.20
13328;DHT22;6733;51.044;3.746;2024-02-21T14:24:28;11.50;80.20
13328;DHT22;6733;51.044;3.746;2024-02-21T14:26:57;11.50;80.40
13328;DHT22;6733;51.044;3.746;2024-02-21T14:29:25;11.30;80.90
13328;DHT22;6733;51.044;3.746;2024-02-21T14:31:54;11.30;81.40
13328;DHT22;6733;51.044;3.746;2024-02-21T14:34:20;11.20;81.80
13328;DHT22;6733;51.044;3.746;2024-02-21T14:36:46;11.20;82.00
13328;DHT22;6733;51.044;3.746;2024-02-21T14:39:15;11.20;81.80
13328;DHT22;6733;51.044;3.746;2024-02-21T14:41:41;11.20;82.30
13328;DHT22;6733;51.044;3.746;2024-02-21T14:44:09;11.20;82.30
13328;DHT22;6733;51.044;3.746;2024-02-21T14:46:37;11.20;82.70
13328;DHT22;6733;51.044;3.746;2024-02-21T14:49:04;11.20;82.50
13328;DHT22;6733;51.044;3.746;2024-02-21T14:51:30;11.20;82.80
13328;DHT22;6733;51.044;3.746;2024-02-21T14:53:57;11.10;82.80
13328;DHT22;6733;51.044;3.746;2024-02-21T14:56:22;11.00;83.00
13328;DHT22;6733;51.044;3.746;2024-02-21T14:58:49;11.00;83.70
13328;DHT22;6733;51.044;3.746;2024-02-21T15:01:15;11.00;83.80
13328;DHT22;6733;51.044;3.746;2024-02-21T15:03:42;11.00;83.90
13328;DHT22;6733;51.044;3.746;2024-02-21T15:06:08;11.00;84.10
13328;DHT22;6733;51.044;3.746;2024-02-21T15:08:35;11.00;84.00
13328;DHT22;6733;51.044;3.746;2024-02-21T15:11:09;11.00;84.00
13328;DHT22;6733;51.044;3.746;2024-02-21T15:13:38;10.90;84.20
13328;DHT22;6733;51.044;3.746;2024-02-21T15:16:05;10.90;84.20
13328;DHT22;6733;51.044;3.746;2024-02-21T15:18:33;10.90;84.60
13328;DHT22;6733;51.044;3.746;2024-02-21T15:21:01;10.80;84.80
13328;DHT22;6733;51.044;3.746;2024-02-21T15:23:28;10.80;84.90
13328;DHT22;6733;51.044;3.746;2024-02-21T15:25:56;10.80;84.90
13328;DHT22;6733;51.044;3.746;2024-02-21T15:28:25;10.70;84.90
13328;DHT22;6733;51.044;3.746;2024-02-21T15:30:52;10.70;85.30
13328;DHT22;6733;51.044;3.746;2024-02-21T15:33:20;10.70;85.40
13328;DHT22;6733;51.044;3.746;2024-02-21T15:35:54;10.70;85.70
13328;DHT22;6733;51.044;3.746;2024-02-21T15:38:20;10.80;85.50
13328;DHT22;6733;51.044;3.746;2024-02-21T15:40:46;10.80;85.30
13328;DHT22;6733;51.044;3.746;2024-02-21T15:43:23;10.80;85.50
13328;DHT22;6733;51.044;3.746;2024-02-21T15:45:59;10.80;85.40
13328;DHT22;6733;51.044;3.746;2024-02-21T15:48:25;10.70;85.70